Terminal Aerodrome Forecast
Issued by NWS

Home | Current Version | Previous Version | Text Only | Print | Product List | Glossary On
Versions: 1 2 3 4 5 6 7 8 9 10 11 12 13 14 15 16
000
FTUS42 KFFC 082333
TAFPDK
TAF
KPDK 082333Z 0900/0924 30012G20KT P6SM BKN070
     FM090400 29010G18KT P6SM BKN070
     FM091100 29010G20KT P6SM VCSH SCT025 BKN045 PROB30 0913/0918
      6SM -SHSN BKN025
     FM091800 29012G22KT P6SM BKN030 PROB30 0918/0923 6SM -SHSN
      BKN025
     FM092300 30012KT P6SM BKN030=

USA.gov is the U.S. government's official web portal to all federal, state and local government web resources and services.